sensor_id;sensor_type;location;lat;lon;timestamp;pressure;altitude;pressure_sealevel;temperature;humidity
11621;BME280;5866;49.094;11.900;2023-03-18T00:00:07;95786.69;;;5.69;95.67
11621;BME280;5866;49.094;11.900;2023-03-18T00:02:37;95782.00;;;6.09;91.88
11621;BME280;5866;49.094;11.900;2023-03-18T00:05:08;95775.00;;;5.91;93.13
11621;BME280;5866;49.094;11.900;2023-03-18T00:07:35;95775.09;;;5.52;98.12
11621;BME280;5866;49.094;11.900;2023-03-18T00:10:04;95781.38;;;5.79;98.18
11621;BME280;5866;49.094;11.900;2023-03-18T00:12:33;95781.41;;;5.88;95.22
11621;BME280;5866;49.094;11.900;2023-03-18T00:15:00;95783.47;;;5.85;95.06
11621;BME280;5866;49.094;11.900;2023-03-18T00:17:28;95789.78;;;5.45;100.00
11621;BME280;5866;49.094;11.900;2023-03-18T00:19:55;95790.00;;;5.61;99.38
11621;BME280;5866;49.094;11.900;2023-03-18T00:22:24;95790.84;;;5.72;96.06
11621;BME280;5866;49.094;11.900;2023-03-18T00:24:51;95790.84;;;5.72;96.66
11621;BME280;5866;49.094;11.900;2023-03-18T00:27:20;95791.63;;;5.82;93.85
11621;BME280;5866;49.094;11.900;2023-03-18T00:29:47;95800.28;;;5.64;96.02
11621;BME280;5866;49.094;11.900;2023-03-18T00:32:15;95799.13;;;5.77;94.19
11621;BME280;5866;49.094;11.900;2023-03-18T00:34:43;95792.50;;;5.73;93.91
11621;BME280;5866;49.094;11.900;2023-03-18T00:37:11;95805.41;;;5.56;96.90
11621;BME280;5866;49.094;11.900;2023-03-18T00:39:45;95797.78;;;5.53;99.72
11621;BME280;5866;49.094;11.900;2023-03-18T00:42:13;95807.25;;;5.27;100.00
11621;BME280;5866;49.094;11.900;2023-03-18T00:44:41;95807.25;;;5.27;100.00
11621;BME280;5866;49.094;11.900;2023-03-18T00:47:09;95808.00;;;5.66;97.90
11621;BME280;5866;49.094;11.900;2023-03-18T00:49:36;95809.94;;;5.74;96.30
11621;BME280;5866;49.094;11.900;2023-03-18T00:52:05;95811.06;;;5.61;96.02
11621;BME280;5866;49.094;11.900;2023-03-18T00:54:32;95812.59;;;5.64;94.94
11621;BME280;5866;49.094;11.900;2023-03-18T00:57:02;95813.56;;;5.63;94.81
11621;BME280;5866;49.094;11.900;2023-03-18T00:59:30;95812.50;;;5.46;93.98
11621;BME280;5866;49.094;11.900;2023-03-18T01:01:58;95812.75;;;5.53;95.35
11621;BME280;5866;49.094;11.900;2023-03-18T01:04:26;95815.28;;;5.35;94.77
11621;BME280;5866;49.094;11.900;2023-03-18T01:06:54;95808.06;;;5.37;94.78
11621;BME280;5866;49.094;11.900;2023-03-18T01:09:22;95807.09;;;5.38;94.72
11621;BME280;5866;49.094;11.900;2023-03-18T01:11:50;95806.41;;;5.36;95.78
11621;BME280;5866;49.094;11.900;2023-03-18T01:14:19;95812.78;;;5.34;98.14
11621;BME280;5866;49.094;11.900;2023-03-18T01:16:47;95817.38;;;5.32;97.88
11621;BME280;5866;49.094;11.900;2023-03-18T01:19:14;95809.03;;;5.36;95.72
11621;BME280;5866;49.094;11.900;2023-03-18T01:21:42;95814.59;;;5.14;97.39
11621;BME280;5866;49.094;11.900;2023-03-18T01:24:10;95818.72;;;5.26;96.61
11621;BME280;5866;49.094;11.900;2023-03-18T01:26:38;95815.53;;;5.32;96.23
11621;BME280;5866;49.094;11.900;2023-03-18T01:29:05;95821.38;;;5.36;96.31
11621;BME280;5866;49.094;11.900;2023-03-18T01:31:34;95821.94;;;5.11;97.80
11621;BME280;5866;49.094;11.900;2023-03-18T01:34:03;95818.91;;;5.15;98.31
11621;BME280;5866;49.094;11.900;2023-03-18T01:36:31;95818.59;;;5.18;97.36
11621;BME280;5866;49.094;11.900;2023-03-18T01:38:58;95816.38;;;5.14;97.53
11621;BME280;5866;49.094;11.900;2023-03-18T01:41:26;95826.63;;;5.07;98.78
11621;BME280;5866;49.094;11.900;2023-03-18T01:43:54;95825.81;;;5.16;99.07
11621;BME280;5866;49.094;11.900;2023-03-18T01:46:37;95821.91;;;5.20;99.00
11621;BME280;5866;49.094;11.900;2023-03-18T01:49:09;95825.38;;;5.11;98.09
11621;BME280;5866;49.094;11.900;2023-03-18T01:51:39;95820.97;;;5.21;97.19
11621;BME280;5866;49.094;11.900;2023-03-18T01:54:08;95826.63;;;5.17;95.98
11621;BME280;5866;49.094;11.900;2023-03-18T01:56:40;95828.28;;;4.79;98.38
11621;BME280;5866;49.094;11.900;2023-03-18T01:59:10;95829.53;;;4.85;99.61
11621;BME280;5866;49.094;11.900;2023-03-18T02:01:42;95828.72;;;4.94;98.95
11621;BME280;5866;49.094;11.900;2023-03-18T02:04:12;95821.94;;;4.92;97.20
11621;BME280;5866;49.094;11.900;2023-03-18T02:06:38;95833.53;;;4.89;95.26
11621;BME280;5866;49.094;11.900;2023-03-18T02:09:06;95831.88;;;4.88;96.97
11621;BME280;5866;49.094;11.900;2023-03-18T02:11:36;95835.31;;;4.69;99.91
11621;BME280;5866;49.094;11.900;2023-03-18T02:14:05;95834.50;;;4.78;98.24
11621;BME280;5866;49.094;11.900;2023-03-18T02:16:43;95835.47;;;4.77;98.67
11621;BME280;5866;49.094;11.900;2023-03-18T02:19:21;95834.09;;;4.83;97.64
11621;BME280;5866;49.094;11.900;2023-03-18T02:21:58;95838.78;;;4.89;97.42
11621;BME280;5866;49.094;11.900;2023-03-18T02:24:34;95841.00;;;4.84;97.56
11621;BME280;5866;49.094;11.900;2023-03-18T02:27:14;95850.00;;;4.81;98.60
11621;BME280;5866;49.094;11.900;2023-03-18T02:29:42;95847.88;;;4.75;98.13
11621;BME280;5866;49.094;11.900;2023-03-18T02:32:11;95844.44;;;4.75;97.42
11621;BME280;5866;49.094;11.900;2023-03-18T02:34:41;95850.66;;;4.74;98.60
11621;BME280;5866;49.094;11.900;2023-03-18T02:37:09;95852.19;;;4.76;99.89
11621;BME280;5866;49.094;11.900;2023-03-18T02:39:36;95848.56;;;4.68;100.00
11621;BME280;5866;49.094;11.900;2023-03-18T02:42:04;95847.78;;;4.77;100.00
11621;BME280;5866;49.094;11.900;2023-03-18T02:44:37;95854.13;;;4.84;98.44
11621;BME280;5866;49.094;11.900;2023-03-18T02:47:09;95850.69;;;4.83;98.19
11621;BME280;5866;49.094;11.900;2023-03-18T02:49:37;95849.03;;;4.73;98.61
11621;BME280;5866;49.094;11.900;2023-03-18T02:52:05;95852.19;;;4.67;99.53
11621;BME280;5866;49.094;11.900;2023-03-18T02:54:32;95849.56;;;4.67;100.00
11621;BME280;5866;49.094;11.900;2023-03-18T02:57:00;95846.25;;;4.65;100.00
11621;BME280;5866;49.094;11.900;2023-03-18T02:59:28;95836.00;;;4.62;99.74
11621;BME280;5866;49.094;11.900;2023-03-18T03:01:59;95840.69;;;4.68;99.54
11621;BME280;5866;49.094;11.900;2023-03-18T03:04:27;95847.88;;;4.66;99.01
11621;BME280;5866;49.094;11.900;2023-03-18T03:06:58;95842.09;;;4.72;98.05
11621;BME280;5866;49.094;11.900;2023-03-18T03:09:26;95855.38;;;4.70;98.17
11621;BME280;5866;49.094;11.900;2023-03-18T03:11:54;95857.84;;;4.72;97.60
11621;BME280;5866;49.094;11.900;2023-03-18T03:14:21;95862.63;;;4.48;99.79
11621;BME280;5866;49.094;11.900;2023-03-18T03:16:49;95865.31;;;4.76;97.37
11621;BME280;5866;49.094;11.900;2023-03-18T03:19:18;95857.44;;;4.86;95.52
11621;BME280;5866;49.094;11.900;2023-03-18T03:21:45;95866.88;;;4.79;96.16
11621;BME280;5866;49.094;11.900;2023-03-18T03:24:13;95869.19;;;4.82;96.40
11621;BME280;5866;49.094;11.900;2023-03-18T03:26:41;95868.34;;;4.72;97.16
11621;BME280;5866;49.094;11.900;2023-03-18T03:29:09;95873.34;;;4.84;98.33
11621;BME280;5866;49.094;11.900;2023-03-18T03:31:37;95877.50;;;4.87;97.51
11621;BME280;5866;49.094;11.900;2023-03-18T03:34:06;95879.44;;;4.85;96.29
11621;BME280;5866;49.094;11.900;2023-03-18T03:36:35;95877.09;;;4.82;96.19
11621;BME280;5866;49.094;11.900;2023-03-18T03:39:02;95880.00;;;4.79;96.66
11621;BME280;5866;49.094;11.900;2023-03-18T03:41:31;95884.97;;;4.82;97.44
11621;BME280;5866;49.094;11.900;2023-03-18T03:43:59;95880.28;;;4.86;97.86
11621;BME280;5866;49.094;11.900;2023-03-18T03:46:26;95886.63;;;4.83;98.38
11621;BME280;5866;49.094;11.900;2023-03-18T03:48:54;95886.09;;;4.79;97.74
11621;BME280;5866;49.094;11.900;2023-03-18T03:51:21;95891.34;;;4.89;97.08
11621;BME280;5866;49.094;11.900;2023-03-18T03:53:50;95892.19;;;4.90;95.95
11621;BME280;5866;49.094;11.900;2023-03-18T03:56:18;95892.19;;;4.90;95.29
11621;BME280;5866;49.094;11.900;2023-03-18T03:58:45;95886.63;;;4.83;94.45
11621;BME280;5866;49.094;11.900;2023-03-18T04:01:13;95884.97;;;4.72;95.69
11621;BME280;5866;49.094;11.900;2023-03-18T04:03:40;95887.03;;;4.78;95.46
11621;BME280;5866;49.094;11.900;2023-03-18T04:06:08;95892.16;;;4.80;94.99
11621;BME280;5866;49.094;11.900;2023-03-18T04:08:36;95883.03;;;4.84;95.19
11621;BME280;5866;49.094;11.900;2023-03-18T04:11:05;95880.28;;;4.86;95.81
11621;BME280;5866;49.094;11.900;2023-03-18T04:13:32;95889.97;;;4.85;95.72
11621;BME280;5866;49.094;11.900;2023-03-18T04:16:00;95890.91;;;4.84;95.93
11621;BME280;5866;49.094;11.900;2023-03-18T04:18:27;95896.84;;;4.27;98.68
11621;BME280;5866;49.094;11.900;2023-03-18T04:20:55;95902.44;;;3.92;100.00
11621;BME280;5866;49.094;11.900;2023-03-18T04:23:22;95900.03;;;4.31;100.00
11621;BME280;5866;49.094;11.900;2023-03-18T04:25:50;95898.81;;;4.44;100.00
11621;BME280;5866;49.094;11.900;2023-03-18T04:28:20;95900.97;;;4.69;99.69
11621;BME280;5866;49.094;11.900;2023-03-18T04:30:47;95902.94;;;4.77;98.14
11621;BME280;5866;49.094;11.900;2023-03-18T04:33:15;95897.16;;;4.93;96.56
11621;BME280;5866;49.094;11.900;2023-03-18T04:35:43;95903.00;;;4.96;96.23
11621;BME280;5866;49.094;11.900;2023-03-18T04:38:10;95900.78;;;5.01;94.66
11621;BME280;5866;49.094;11.900;2023-03-18T04:40:38;95898.28;;;5.09;93.23
11621;BME280;5866;49.094;11.900;2023-03-18T04:43:06;95904.38;;;5.10;92.60
11621;BME280;5866;49.094;11.900;2023-03-18T04:45:36;95902.59;;;5.10;92.93
11621;BME280;5866;49.094;11.900;2023-03-18T04:48:04;95906.56;;;4.95;92.91
11621;BME280;5866;49.094;11.900;2023-03-18T04:50:32;95901.91;;;5.08;91.79
11621;BME280;5866;49.094;11.900;2023-03-18T04:52:59;95903.44;;;5.11;91.63
11621;BME280;5866;49.094;11.900;2023-03-18T04:55:27;95907.31;;;5.07;92.02
11621;BME280;5866;49.094;11.900;2023-03-18T04:57:54;95902.28;;;5.13;91.45
11621;BME280;5866;49.094;11.900;2023-03-18T05:00:22;95900.66;;;5.12;91.52
11621;BME280;5866;49.094;11.900;2023-03-18T05:02:51;95899.66;;;5.13;91.40
11621;BME280;5866;49.094;11.900;2023-03-18T05:05:19;95900.66;;;5.12;91.35
11621;BME280;5866;49.094;11.900;2023-03-18T05:07:46;95908.00;;;5.18;90.81
11621;BME280;5866;49.094;11.900;2023-03-18T05:10:14;95907.69;;;5.12;90.96
11621;BME280;5866;49.094;11.900;2023-03-18T05:12:41;95908.00;;;5.09;91.56
11621;BME280;5866;49.094;11.900;2023-03-18T05:15:10;95904.22;;;5.11;92.93
11621;BME280;5866;49.094;11.900;2023-03-18T05:17:38;95905.22;;;5.20;93.18
11621;BME280;5866;49.094;11.900;2023-03-18T05:20:09;95901.78;;;5.29;93.52
11621;BME280;5866;49.094;11.900;2023-03-18T05:22:38;95904.41;;;5.29;93.08
11621;BME280;5866;49.094;11.900;2023-03-18T05:25:07;95902.75;;;5.37;92.66
11621;BME280;5866;49.094;11.900;2023-03-18T05:27:36;95907.16;;;5.08;94.10
11621;BME280;5866;49.094;11.900;2023-03-18T05:30:04;95910.19;;;5.13;95.79
11621;BME280;5866;49.094;11.900;2023-03-18T05:32:32;95909.25;;;5.33;94.71
11621;BME280;5866;49.094;11.900;2023-03-18T05:35:00;95904.69;;;5.54;93.43
11621;BME280;5866;49.094;11.900;2023-03-18T05:37:30;95908.41;;;5.61;90.34
11621;BME280;5866;49.094;11.900;2023-03-18T05:39:58;95903.59;;;5.57;91.29
11621;BME280;5866;49.094;11.900;2023-03-18T05:42:25;95911.88;;;5.43;94.09
11621;BME280;5866;49.094;11.900;2023-03-18T05:44:53;95896.66;;;5.27;94.73
11621;BME280;5866;49.094;11.900;2023-03-18T05:47:22;95901.91;;;5.37;96.81
11621;BME280;5866;49.094;11.900;2023-03-18T05:49:49;95902.44;;;5.40;97.46
11621;BME280;5866;49.094;11.900;2023-03-18T05:52:17;95907.16;;;5.85;93.13
11621;BME280;5866;49.094;11.900;2023-03-18T05:54:46;95903.75;;;6.21;89.77
11621;BME280;5866;49.094;11.900;2023-03-18T05:57:13;95906.22;;;6.32;89.15
11621;BME280;5866;49.094;11.900;2023-03-18T05:59:41;95899.22;;;6.50;89.24
11621;BME280;5866;49.094;11.900;2023-03-18T06:02:09;95897.94;;;6.81;86.98
11621;BME280;5866;49.094;11.900;2023-03-18T06:04:37;95906.75;;;6.99;87.50
11621;BME280;5866;49.094;11.900;2023-03-18T06:07:05;95913.34;;;7.31;83.21
11621;BME280;5866;49.094;11.900;2023-03-18T06:09:32;95913.72;;;7.36;84.85
11621;BME280;5866;49.094;11.900;2023-03-18T06:12:01;95921.16;;;7.75;83.27
11621;BME280;5866;49.094;11.900;2023-03-18T06:14:30;95920.84;;;7.96;82.87
11621;BME280;5866;49.094;11.900;2023-03-18T06:16:58;95925.31;;;7.78;82.97
11621;BME280;5866;49.094;11.900;2023-03-18T06:19:25;95925.44;;;7.94;82.54
11621;BME280;5866;49.094;11.900;2023-03-18T06:21:56;95921.47;;;8.33;82.27
11621;BME280;5866;49.094;11.900;2023-03-18T06:24:24;95927.34;;;8.53;81.88
11621;BME280;5866;49.094;11.900;2023-03-18T06:26:51;95924.41;;;8.90;79.70
11621;BME280;5866;49.094;11.900;2023-03-18T06:29:21;95925.91;;;9.34;76.11
11621;BME280;5866;49.094;11.900;2023-03-18T06:31:48;95926.88;;;9.41;75.87
11621;BME280;5866;49.094;11.900;2023-03-18T06:34:16;95927.25;;;9.54;74.50
11621;BME280;5866;49.094;11.900;2023-03-18T06:36:44;95924.59;;;9.38;75.17
11621;BME280;5866;49.094;11.900;2023-03-18T06:39:12;95932.78;;;9.19;75.15
11621;BME280;5866;49.094;11.900;2023-03-18T06:41:39;95940.50;;;9.54;74.91
11621;BME280;5866;49.094;11.900;2023-03-18T06:44:07;95937.50;;;9.49;73.43
11621;BME280;5866;49.094;11.900;2023-03-18T06:46:35;95937.53;;;9.65;73.09
11621;BME280;5866;49.094;11.900;2023-03-18T06:49:03;95943.16;;;9.62;73.18
11621;BME280;5866;49.094;11.900;2023-03-18T06:51:30;95940.53;;;10.02;71.48
11621;BME280;5866;49.094;11.900;2023-03-18T06:53:59;95942.88;;;10.05;69.23
11621;BME280;5866;49.094;11.900;2023-03-18T06:56:26;95953.78;;;9.94;69.75
11621;BME280;5866;49.094;11.900;2023-03-18T06:58:54;95953.16;;;10.32;66.72
11621;BME280;5866;49.094;11.900;2023-03-18T07:01:21;95953.31;;;10.31;64.36
11621;BME280;5866;49.094;11.900;2023-03-18T07:03:50;95963.13;;;10.30;65.07
11621;BME280;5866;49.094;11.900;2023-03-18T07:06:17;95955.72;;;10.81;63.20
11621;BME280;5866;49.094;11.900;2023-03-18T07:08:45;95957.06;;;11.24;61.44
11621;BME280;5866;49.094;11.900;2023-03-18T07:11:12;95952.31;;;11.80;60.99
11621;BME280;5866;49.094;11.900;2023-03-18T07:13:40;95954.53;;;12.37;58.26
11621;BME280;5866;49.094;11.900;2023-03-18T07:16:07;95954.19;;;12.40;57.90
11621;BME280;5866;49.094;11.900;2023-03-18T07:18:36;95965.69;;;12.32;57.47
11621;BME280;5866;49.094;11.900;2023-03-18T07:21:05;95957.84;;;12.39;57.62
11621;BME280;5866;49.094;11.900;2023-03-18T07:23:33;95961.38;;;12.54;57.18
11621;BME280;5866;49.094;11.900;2023-03-18T07:26:00;95960.81;;;12.21;57.85
11621;BME280;5866;49.094;11.900;2023-03-18T07:28:28;95969.34;;;12.17;57.70
11621;BME280;5866;49.094;11.900;2023-03-18T07:30:55;95970.06;;;12.48;56.80
11621;BME280;5866;49.094;11.900;2023-03-18T07:33:23;95967.47;;;12.77;56.03
11621;BME280;5866;49.094;11.900;2023-03-18T07:35:51;95965.00;;;12.90;54.43
11621;BME280;5866;49.094;11.900;2023-03-18T07:38:20;95962.69;;;12.72;52.27
11621;BME280;5866;49.094;11.900;2023-03-18T07:40:47;95964.16;;;12.75;52.37
11621;BME280;5866;49.094;11.900;2023-03-18T07:43:14;95968.53;;;12.68;51.94
11621;BME280;5866;49.094;11.900;2023-03-18T07:45:42;95975.00;;;12.14;52.66
11621;BME280;5866;49.094;11.900;2023-03-18T07:48:10;95977.47;;;12.38;52.40
11621;BME280;5866;49.094;11.900;2023-03-18T07:50:38;95971.22;;;11.85;53.05
11621;BME280;5866;49.094;11.900;2023-03-18T07:53:06;95982.53;;;11.79;53.83
11621;BME280;5866;49.094;11.900;2023-03-18T07:55:35;95982.00;;;12.07;53.09
11621;BME280;5866;49.094;11.900;2023-03-18T07:58:02;95985.09;;;12.41;52.59
11621;BME280;5866;49.094;11.900;2023-03-18T08:00:30;95983.69;;;12.82;51.81
11621;BME280;5866;49.094;11.900;2023-03-18T08:02:58;95972.75;;;13.29;51.11
11621;BME280;5866;49.094;11.900;2023-03-18T08:05:26;95972.09;;;13.27;50.89
11621;BME280;5866;49.094;11.900;2023-03-18T08:07:53;95976.19;;;13.59;50.46
11621;BME280;5866;49.094;11.900;2023-03-18T08:10:21;95979.66;;;13.74;49.83
11621;BME280;5866;49.094;11.900;2023-03-18T08:12:51;95973.63;;;14.01;49.18
11621;BME280;5866;49.094;11.900;2023-03-18T08:15:19;95977.69;;;13.97;49.10
11621;BME280;5866;49.094;11.900;2023-03-18T08:17:47;95974.66;;;13.85;49.43
11621;BME280;5866;49.094;11.900;2023-03-18T08:20:15;95983.03;;;14.39;48.04
11621;BME280;5866;49.094;11.900;2023-03-18T08:22:42;95981.63;;;14.92;47.47
11621;BME280;5866;49.094;11.900;2023-03-18T08:25:11;95993.09;;;15.13;46.88
11621;BME280;5866;49.094;11.900;2023-03-18T08:27:38;95996.34;;;15.09;46.91
11621;BME280;5866;49.094;11.900;2023-03-18T08:30:08;95990.06;;;15.23;46.09
11621;BME280;5866;49.094;11.900;2023-03-18T08:32:36;95985.94;;;15.55;46.07
11621;BME280;5866;49.094;11.900;2023-03-18T08:35:05;95991.53;;;16.14;44.14
11621;BME280;5866;49.094;11.900;2023-03-18T08:37:32;95995.44;;;16.18;43.57
11621;BME280;5866;49.094;11.900;2023-03-18T08:40:01;95992.72;;;15.98;43.79
11621;BME280;5866;49.094;11.900;2023-03-18T08:42:28;96001.06;;;16.29;43.64
11621;BME280;5866;49.094;11.900;2023-03-18T08:44:56;95996.13;;;16.46;42.59
11621;BME280;5866;49.094;11.900;2023-03-18T08:47:25;95994.53;;;16.51;42.46
11621;BME280;5866;49.094;11.900;2023-03-18T08:49:54;95996.59;;;16.69;41.95
11621;BME280;5866;49.094;11.900;2023-03-18T08:52:22;95988.34;;;16.71;41.97
11621;BME280;5866;49.094;11.900;2023-03-18T08:54:50;95990.66;;;15.94;42.68
11621;BME280;5866;49.094;11.900;2023-03-18T08:57:18;95992.72;;;16.05;42.58
11621;BME280;5866;49.094;11.900;2023-03-18T08:59:46;95994.81;;;16.09;43.23
11621;BME280;5866;49.094;11.900;2023-03-18T09:02:14;95994.13;;;16.74;42.84
11621;BME280;5866;49.094;11.900;2023-03-18T09:04:45;95993.06;;;17.27;41.73
11621;BME280;5866;49.094;11.900;2023-03-18T09:07:13;95987.03;;;17.38;41.24
11621;BME280;5866;49.094;11.900;2023-03-18T09:09:44;95983.69;;;17.76;40.38
11621;BME280;5866;49.094;11.900;2023-03-18T09:12:12;95987.88;;;17.39;40.32
11621;BME280;5866;49.094;11.900;2023-03-18T09:14:40;95987.41;;;17.68;41.04
11621;BME280;5866;49.094;11.900;2023-03-18T09:17:08;95986.97;;;18.60;39.98
11621;BME280;5866;49.094;11.900;2023-03-18T09:19:36;95989.78;;;18.96;38.85
11621;BME280;5866;49.094;11.900;2023-03-18T09:22:05;95990.75;;;18.77;38.63
11621;BME280;5866;49.094;11.900;2023-03-18T09:24:34;95998.66;;;18.72;38.21
11621;BME280;5866;49.094;11.900;2023-03-18T09:27:01;96000.16;;;18.92;38.36
11621;BME280;5866;49.094;11.900;2023-03-18T09:29:29;96003.34;;;18.83;39.00
11621;BME280;5866;49.094;11.900;2023-03-18T09:31:57;95997.09;;;18.89;38.57
11621;BME280;5866;49.094;11.900;2023-03-18T09:34:25;95990.84;;;18.95;39.08
11621;BME280;5866;49.094;11.900;2023-03-18T09:36:53;95985.22;;;18.72;38.57
11621;BME280;5866;49.094;11.900;2023-03-18T09:39:22;95985.22;;;18.47;38.95
11621;BME280;5866;49.094;11.900;2023-03-18T09:42:02;95987.50;;;18.99;38.83
11621;BME280;5866;49.094;11.900;2023-03-18T09:44:34;95985.63;;;20.33;37.08
11621;BME280;5866;49.094;11.900;2023-03-18T09:47:19;95987.50;;;21.50;35.37
11621;BME280;5866;49.094;11.900;2023-03-18T09:50:16;95988.91;;;21.41;35.10
11621;BME280;5866;49.094;11.900;2023-03-18T09:52:51;95992.59;;;20.94;35.88
11621;BME280;5866;49.094;11.900;2023-03-18T09:55:26;95993.13;;;20.61;36.27
11621;BME280;5866;49.094;11.900;2023-03-18T09:57:58;95987.81;;;20.25;36.82
11621;BME280;5866;49.094;11.900;2023-03-18T10:00:31;95985.19;;;20.78;36.77
11621;BME280;5866;49.094;11.900;2023-03-18T10:03:02;95984.81;;;21.15;35.62
11621;BME280;5866;49.094;11.900;2023-03-18T10:05:34;95987.44;;;20.51;36.01
11621;BME280;5866;49.094;11.900;2023-03-18T10:08:07;95996.41;;;20.63;35.85
11621;BME280;5866;49.094;11.900;2023-03-18T10:10:43;95987.31;;;20.87;35.97
11621;BME280;5866;49.094;11.900;2023-03-18T10:13:18;95986.28;;;20.88;36.55
11621;BME280;5866;49.094;11.900;2023-03-18T10:15:49;95986.91;;;21.36;36.08
11621;BME280;5866;49.094;11.900;2023-03-18T10:18:23;95978.19;;;21.81;35.06
11621;BME280;5866;49.094;11.900;2023-03-18T10:21:03;95978.94;;;21.65;35.85
11621;BME280;5866;49.094;11.900;2023-03-18T10:23:46;95980.03;;;22.43;34.07
11621;BME280;5866;49.094;11.900;2023-03-18T10:26:22;95979.22;;;22.87;34.44
11621;BME280;5866;49.094;11.900;2023-03-18T10:29:08;95972.78;;;22.60;33.68
11621;BME280;5866;49.094;11.900;2023-03-18T10:31:53;95976.63;;;22.92;33.44
11621;BME280;5866;49.094;11.900;2023-03-18T10:34:30;95979.47;;;23.52;32.98
11621;BME280;5866;49.094;11.900;2023-03-18T10:37:05;95973.81;;;23.92;32.89
11621;BME280;5866;49.094;11.900;2023-03-18T10:39:34;95976.91;;;23.79;32.92
11621;BME280;5866;49.094;11.900;2023-03-18T10:42:17;95973.19;;;23.85;33.20
11621;BME280;5866;49.094;11.900;2023-03-18T10:44:46;95975.25;;;24.65;31.80
11621;BME280;5866;49.094;11.900;2023-03-18T10:47:17;95966.03;;;24.17;31.50
11621;BME280;5866;49.094;11.900;2023-03-18T10:49:53;95961.03;;;24.53;31.48
11621;BME280;5866;49.094;11.900;2023-03-18T10:52:31;95960.28;;;24.62;31.25
11621;BME280;5866;49.094;11.900;2023-03-18T10:54:59;95967.03;;;25.13;30.94
11621;BME280;5866;49.094;11.900;2023-03-18T10:57:28;95952.72;;;25.22;30.95
11621;BME280;5866;49.094;11.900;2023-03-18T10:59:57;95959.56;;;24.72;31.24
11621;BME280;5866;49.094;11.900;2023-03-18T11:02:29;95950.78;;;24.11;32.02
11621;BME280;5866;49.094;11.900;2023-03-18T11:05:02;95956.38;;;23.83;32.81
11621;BME280;5866;49.094;11.900;2023-03-18T11:07:30;95954.41;;;23.79;33.06
11621;BME280;5866;49.094;11.900;2023-03-18T11:10:11;95955.16;;;24.66;31.56
11621;BME280;5866;49.094;11.900;2023-03-18T11:12:41;95954.47;;;25.39;31.06
11621;BME280;5866;49.094;11.900;2023-03-18T11:15:10;95946.19;;;25.55;30.12
11621;BME280;5866;49.094;11.900;2023-03-18T11:17:38;95938.81;;;25.14;30.68
11621;BME280;5866;49.094;11.900;2023-03-18T11:20:18;95935.66;;;25.64;30.23
11621;BME280;5866;49.094;11.900;2023-03-18T11:22:49;95934.97;;;25.93;30.13
11621;BME280;5866;49.094;11.900;2023-03-18T11:25:19;95928.13;;;25.81;30.27
11621;BME280;5866;49.094;11.900;2023-03-18T11:27:51;95935.34;;;25.60;29.99
11621;BME280;5866;49.094;11.900;2023-03-18T11:30:25;95930.59;;;25.82;29.74
11621;BME280;5866;49.094;11.900;2023-03-18T11:33:04;95925.28;;;24.87;30.80
11621;BME280;5866;49.094;11.900;2023-03-18T11:35:37;95928.00;;;24.61;31.43
11621;BME280;5866;49.094;11.900;2023-03-18T11:38:13;95927.50;;;24.15;32.43
11621;BME280;5866;49.094;11.900;2023-03-18T11:40:41;95923.75;;;24.16;31.96
11621;BME280;5866;49.094;11.900;2023-03-18T11:43:16;95924.38;;;24.77;32.54
11621;BME280;5866;49.094;11.900;2023-03-18T11:45:48;95912.88;;;25.75;30.78
11621;BME280;5866;49.094;11.900;2023-03-18T11:48:23;95909.44;;;25.94;30.01
11621;BME280;5866;49.094;11.900;2023-03-18T11:51:05;95907.38;;;26.27;30.24
11621;BME280;5866;49.094;11.900;2023-03-18T11:53:45;95906.09;;;25.77;30.22
11621;BME280;5866;49.094;11.900;2023-03-18T11:56:22;95899.47;;;26.15;30.24
11621;BME280;5866;49.094;11.900;2023-03-18T11:59:15;95903.66;;;26.63;29.13
11621;BME280;5866;49.094;11.900;2023-03-18T12:01:56;95897.38;;;26.32;29.18
11621;BME280;5866;49.094;11.900;2023-03-18T12:04:40;95896.63;;;25.85;29.42
11621;BME280;5866;49.094;11.900;2023-03-18T12:07:23;95894.16;;;25.78;30.11
11621;BME280;5866;49.094;11.900;2023-03-18T12:09:57;95889.78;;;25.77;29.33
11621;BME280;5866;49.094;11.900;2023-03-18T12:12:45;95897.66;;;26.41;29.12
11621;BME280;5866;49.094;11.900;2023-03-18T12:15:23;95887.84;;;26.40;28.47
11621;BME280;5866;49.094;11.900;2023-03-18T12:18:03;95887.06;;;26.49;28.62
11621;BME280;5866;49.094;11.900;2023-03-18T12:20:44;95878.16;;;25.92;28.72
11621;BME280;5866;49.094;11.900;2023-03-18T12:23:38;95879.94;;;26.23;28.74
11621;BME280;5866;49.094;11.900;2023-03-18T12:26:11;95877.50;;;26.32;29.71
11621;BME280;5866;49.094;11.900;2023-03-18T12:29:01;95863.44;;;25.26;29.79
11621;BME280;5866;49.094;11.900;2023-03-18T12:31:50;95868.00;;;25.15;30.33
11621;BME280;5866;49.094;11.900;2023-03-18T12:34:30;95862.06;;;24.87;29.66
11621;BME280;5866;49.094;11.900;2023-03-18T12:37:12;95866.22;;;24.94;30.69
11621;BME280;5866;49.094;11.900;2023-03-18T12:40:12;95859.34;;;24.28;31.50
11621;BME280;5866;49.094;11.900;2023-03-18T12:42:58;95852.78;;;24.78;31.29
11621;BME280;5866;49.094;11.900;2023-03-18T12:45:32;95848.50;;;24.87;30.78
11621;BME280;5866;49.094;11.900;2023-03-18T12:48:07;95847.72;;;25.33;30.48
11621;BME280;5866;49.094;11.900;2023-03-18T12:50:38;95849.38;;;24.97;30.21
11621;BME280;5866;49.094;11.900;2023-03-18T12:53:11;95843.94;;;25.34;29.98
11621;BME280;5866;49.094;11.900;2023-03-18T12:55:44;95842.41;;;25.06;30.43
11621;BME280;5866;49.094;11.900;2023-03-18T12:58:15;95842.81;;;25.82;30.07
11621;BME280;5866;49.094;11.900;2023-03-18T13:00:48;95847.47;;;26.01;29.54
11621;BME280;5866;49.094;11.900;2023-03-18T13:03:27;95848.69;;;26.36;29.15
11621;BME280;5866;49.094;11.900;2023-03-18T13:05:59;95847.63;;;26.77;28.63
11621;BME280;5866;49.094;11.900;2023-03-18T13:08:45;95848.69;;;26.71;28.94
11621;BME280;5866;49.094;11.900;2023-03-18T13:11:31;95849.88;;;25.83;29.93
11621;BME280;5866;49.094;11.900;2023-03-18T13:14:06;95855.75;;;25.13;30.36
11621;BME280;5866;49.094;11.900;2023-03-18T13:16:37;95848.63;;;25.44;29.86
11621;BME280;5866;49.094;11.900;2023-03-18T13:19:08;95857.91;;;25.16;30.71
11621;BME280;5866;49.094;11.900;2023-03-18T13:21:41;95855.28;;;25.26;30.34